• Join FlightAware (Why Join?)
  • Login
  • US Flag 
09:10AM EDT


 

Airport Tracker/Info


-or-


 

Live Flight TrackerFlight Track Log ✈ N664US ✈ 04-May-2012 ✈ KLAX - RJAA / NRT

Flight Track Log - Related Links

Times and Time Zones

All times are in EDT time to prevent confusion due to time zone crossing. See the N664US flight status page for this flight to view local times or setup timezone preferences in your user account.

Time Position Orientation Groundspeed Altitude Reporting Facility
EDT Latitude Longitude Course Direction KTS MPH feet Rate Location/Type
05:02PM 33.9500 -118.4500 265° West 171 197 800  Level Southern California TRACON
05:04PM 33.9425 -118.5450 263° West 205 236 2,800 1,380 Climbing Los Angeles Center
05:05PM 33.9347 -118.6250 252° West 253 291 4,300 1,920 Climbing Los Angeles Center
05:06PM 33.9053 -118.7317 256° West 286 329 6,700 2,520 Climbing Los Angeles Center
05:07PM 33.8844 -118.8311 294° West 301 346 9,400 2,160 Climbing Los Angeles Center
05:08PM 33.9139 -118.9097 335° Northwest 294 338 11,100 1,680 Climbing Los Angeles Center
05:09PM 34.0025 -118.9603 321° Northwest 276 318 12,800 1,440 Climbing Los Angeles Center
05:10PM 34.0819 -119.0381 305° West 323 372 14,000 1,500 Climbing Los Angeles Center
05:11PM 34.1461 -119.1483 306° West 361 415 15,800 1,800 Climbing Los Angeles Center
05:12PM 34.2122 -119.2586 305° West 394 453 17,600 1,740 Climbing Los Angeles Center
05:13PM 34.2781 -119.3742 303° West 413 475 19,300 1,620 Climbing Los Angeles Center
05:14PM 34.3494 -119.5053 304° West 424 488 20,900 1,500 Climbing Los Angeles Center
05:15PM 34.4192 -119.6289 305° West 435 501 22,400 1,440 Climbing Los Angeles Center
05:16PM 34.4906 -119.7531 309° West 441 507 23,800 1,260 Climbing Los Angeles Center
05:17PM 34.5706 -119.8725 317° Northwest 452 520 25,000 1,080 Climbing Los Angeles Center
05:18PM 34.6672 -119.9828 311° West 464 534 26,000 900 Climbing Los Angeles Center
05:19PM 34.7372 -120.0797 313° West 469 540 26,900 960 Climbing Los Angeles Center
05:20PM 34.8392 -120.2136 311° West 480 552 28,000 1,200 Climbing Los Angeles Center
05:21PM 34.9286 -120.3397 312° West 485 558 29,400 1,380 Climbing Los Angeles Center
05:22PM 35.0164 -120.4608 311° West 485 558 30,800 1,260 Climbing Los Angeles Center
05:23PM 35.1036 -120.5822 312° West 479 551 32,000 360 Climbing Los Angeles Center
05:25PM 35.3036 -120.8567 312° West 469 540 32,000  Level Oakland Center
05:26PM 35.3892 -120.9736 309° West 469 540 32,000  Level Oakland Center
05:27PM 35.4703 -121.0986 302° West 469 540 32,000  Level Oakland Center
05:28PM 35.5369 -121.2286 300° West 469 540 32,000  Level Oakland Center
05:29PM 35.5992 -121.3617 301° West 463 533 32,000  Level Oakland Center
05:30PM 35.6653 -121.4950 300° West 453 521 32,000  Level Oakland Center
05:31PM 35.7189 -121.6103 301° West 453 521 32,000  Level Oakland Center
05:32PM 35.7828 -121.7439 301° West 448 516 32,000  Level Oakland Center
05:33PM 35.8467 -121.8753 300° West 448 516 32,000  Level Oakland Center
05:34PM 35.9081 -122.0092 302° West 448 516 32,000  Level Oakland Center
05:35PM 35.9736 -122.1383 297° West 448 516 32,000  Level Oakland Center
05:36PM 36.0367 -122.2933 301° West 448 516 32,000  Level Oakland Center
05:37PM 36.0997 -122.4231 301° West 448 516 32,000  Level Oakland Center
05:38PM 36.1628 -122.5528 300° West 448 516 32,000  Level Oakland Center
05:39PM 36.2233 -122.6853 301° West 448 516 32,000  Level Oakland Center
05:40PM 36.2861 -122.8156 300° West 448 516 32,000  Level Oakland Center
05:41PM 36.3486 -122.9486 300° West 448 516 32,000  Level Oakland Center
05:42PM 36.4111 -123.0817 300° West 448 516 32,000  Level Oakland Center
05:43PM 36.4733 -123.2153 300° West 448 516 32,000  Level Oakland Center
05:44PM 36.5333 -123.3461 300° West 448 516 32,000  Level Oakland Center
05:45PM 36.5931 -123.4747 300° West 448 516 32,000  Level Oakland Center
05:46PM 36.6547 -123.6089 300° West 448 516 32,000  Level Oakland Center
05:47PM 36.7144 -123.7403 300° West 448 516 32,000  Level Oakland Center
05:48PM 36.7758 -123.8722 299° West 448 516 32,000  Level Oakland Center
05:49PM 36.8353 -124.0044 300° West 448 516 32,000  Level Oakland Center
05:50PM 36.8983 -124.1392 299° West 448 516 32,000  Level Oakland Center
05:51PM 36.9514 -124.2583 300° West 448 516 32,000  Level Oakland Center
05:52PM 37.0122 -124.3911 300° West 448 516 32,000  Level Oakland Center
05:53PM 37.0750 -124.5269 298° West 448 516 32,000  Level Oakland Center
05:54PM 37.1314 -124.6597 300° West 448 516 32,000  Level Oakland Center
05:55PM 37.1939 -124.7958 299° West 448 516 32,000  Level Oakland Center
05:56PM 37.2539 -124.9344 299° West 448 516 32,000  Level Oakland Center
05:57PM 37.3139 -125.0683 300° West 448 516 32,000  Level Oakland Center
05:58PM 37.3758 -125.2050 297° West 448 516 32,000  Level Oakland Center
05:59PM 37.4294 -125.3389 300° West 448 516 32,000  Level Oakland Center
06:00PM 37.4911 -125.4758 298° West 448 516 32,000  Level Oakland Center
06:01PM 37.5483 -125.6103 299° West 443 510 32,000  Level Oakland Center
06:02PM 37.6058 -125.7397 298° West 443 510 32,000  Level Oakland Center
06:03PM 37.6628 -125.8747 299° West 443 510 32,000  Level Oakland Center
06:04PM 37.7217 -126.0100 298° West 443 510 32,000  Level Oakland Center
06:05PM 37.7806 -126.1481 298° West 443 510 32,000  Level Oakland Center
06:14PM 38.1333 -127.0000 288° West 442 509 32,000  Level Oakland Oceanic (ODAPS)
06:33PM 38.8333 -130.0000 282° West 440 506 32,000  Level Oakland Oceanic (ODAPS)
06:34PM 38.9155 -130.5151 281° West 442 509 32,000  Level FlightAware Transoceanic
06:41PM 39.0773 -131.5773 281° West 440 506 32,000  Level FlightAware Transoceanic
06:42PM 39.1000 -131.7318 281° West 440 506 32,000  Level FlightAware Transoceanic
06:43PM 39.1225 -131.8864 281° West 440 506 32,000  Level FlightAware Transoceanic
06:44PM 39.1447 -132.0410 280° West 440 506 32,000  Level FlightAware Transoceanic
06:45PM 39.1668 -132.1958 280° West 440 506 32,000  Level FlightAware Transoceanic
06:46PM 39.1886 -132.3506 280° West 440 506 32,000  Level FlightAware Transoceanic
06:47PM 39.2103 -132.5056 280° West 440 506 32,000  Level FlightAware Transoceanic
06:48PM 39.2317 -132.6606 280° West 440 506 32,000  Level FlightAware Transoceanic
06:49PM 39.2529 -132.8158 280° West 440 506 32,000  Level FlightAware Transoceanic
06:50PM 39.2739 -132.9710 280° West 440 506 32,000  Level FlightAware Transoceanic
06:51PM 39.2948 -133.1263 280° West 440 506 32,000  Level FlightAware Transoceanic
06:52PM 39.3154 -133.2817 280° West 440 506 32,000  Level FlightAware Transoceanic
06:53PM 39.3358 -133.4373 280° West 440 506 32,000  Level FlightAware Transoceanic
06:54PM 39.3560 -133.5928 279° West 440 506 32,000  Level FlightAware Transoceanic
06:55PM 39.3760 -133.7485 279° West 440 506 32,000  Level FlightAware Transoceanic
06:56PM 39.3958 -133.9043 279° West 440 506 32,000  Level FlightAware Transoceanic
06:57PM 39.4153 -134.0602 279° West 440 506 32,000  Level FlightAware Transoceanic
06:58PM 39.4347 -134.2161 279° West 440 506 32,000  Level FlightAware Transoceanic
06:59PM 39.4539 -134.3722 279° West 440 506 32,000  Level FlightAware Transoceanic
07:00PM 39.4728 -134.5283 279° West 440 506 32,000  Level FlightAware Transoceanic
07:01PM 39.4916 -134.6845 279° West 440 506 32,000  Level FlightAware Transoceanic
07:02PM 39.5101 -134.8408 279° West 440 506 32,000  Level FlightAware Transoceanic
07:03PM 39.5284 -134.9971 279° West 440 506 32,000  Level FlightAware Transoceanic
07:04PM 39.5465 -135.1536 278° West 440 506 32,000  Level FlightAware Transoceanic
07:05PM 39.5644 -135.3102 278° West 440 506 32,000  Level FlightAware Transoceanic
07:06PM 39.5821 -135.4668 278° West 440 506 32,000  Level FlightAware Transoceanic
07:07PM 39.5996 -135.6235 278° West 440 506 32,000  Level FlightAware Transoceanic
07:08PM 39.6169 -135.7802 278° West 440 506 32,000  Level FlightAware Transoceanic
07:09PM 39.6339 -135.9371 278° West 440 506 32,000  Level FlightAware Transoceanic
07:10PM 39.6508 -136.0940 278° West 440 506 32,000  Level FlightAware Transoceanic
07:11PM 39.6674 -136.2510 278° West 440 506 32,000  Level FlightAware Transoceanic
07:12PM 39.6839 -136.4081 278° West 440 506 32,000  Level FlightAware Transoceanic
07:13PM 39.7001 -136.5653 278° West 440 506 32,000  Level FlightAware Transoceanic
07:14PM 39.7161 -136.7225 277° West 440 506 32,000  Level FlightAware Transoceanic
07:15PM 39.7319 -136.8798 277° West 440 506 32,000  Level FlightAware Transoceanic
07:16PM 39.7475 -137.0372 277° West 440 506 32,000  Level FlightAware Transoceanic
07:17PM 39.7628 -137.1946 277° West 440 506 32,000  Level FlightAware Transoceanic
07:18PM 39.7780 -137.3521 277° West 440 506 32,000  Level FlightAware Transoceanic
07:19PM 39.7929 -137.5097 277° West 440 506 32,000  Level FlightAware Transoceanic
07:20PM 39.8077 -137.6674 277° West 440 506 32,000  Level FlightAware Transoceanic
07:21PM 39.8222 -137.8251 277° West 440 506 32,000  Level FlightAware Transoceanic
07:22PM 39.8365 -137.9829 277° West 440 506 32,000  Level FlightAware Transoceanic
07:23PM 39.8506 -138.1407 277° West 440 506 32,000  Level FlightAware Transoceanic
07:24PM 39.8644 -138.2986 276° West 440 506 32,000  Level FlightAware Transoceanic
07:25PM 39.8781 -138.4566 276° West 440 506 32,000  Level FlightAware Transoceanic
07:26PM 39.8915 -138.6146 276° West 440 506 32,000  Level FlightAware Transoceanic
07:27PM 39.9048 -138.7727 276° West 440 506 32,000  Level FlightAware Transoceanic
07:28PM 39.9178 -138.9309 276° West 440 506 32,000  Level FlightAware Transoceanic
07:29PM 39.9306 -139.0891 276° West 440 506 32,000  Level FlightAware Transoceanic
07:30PM 39.9432 -139.2474 276° West 440 506 32,000  Level FlightAware Transoceanic
07:31PM 39.9555 -139.4057 276° West 440 506 32,000  Level FlightAware Transoceanic
07:32PM 39.9677 -139.5641 276° West 440 506 32,000  Level FlightAware Transoceanic
07:33PM 39.9796 -139.7226 276° West 440 506 32,000  Level FlightAware Transoceanic
07:34PM 39.9913 -139.8811 277° West 440 506 32,000  Level FlightAware Transoceanic
07:35PM 40.0057 -140.0397 281° West 440 506 32,000  Level FlightAware Transoceanic
07:36PM 40.0286 -140.1983 281° West 440 506 32,000  Level FlightAware Transoceanic
07:37PM 40.0512 -140.3571 280° West 440 506 32,000  Level FlightAware Transoceanic
07:38PM 40.0736 -140.5159 100° East 440 506 32,000  Level FlightAware Transoceanic
07:38PM 40.0000 -140.0000 281° West 432 497 32,000  Level Oakland Oceanic (ODAPS)
07:46PM 40.2577 -141.8891 280° West 432 497 32,000  Level FlightAware Transoceanic
07:47PM 40.2774 -142.0439 279° West 432 497 32,000  Level FlightAware Transoceanic
07:48PM 40.2969 -142.1988 279° West 432 497 32,000  Level FlightAware Transoceanic
07:49PM 40.3162 -142.3538 279° West 432 497 32,000  Level FlightAware Transoceanic
07:50PM 40.3352 -142.5089 279° West 432 497 32,000  Level FlightAware Transoceanic
07:51PM 40.3541 -142.6641 279° West 432 497 32,000  Level FlightAware Transoceanic
07:52PM 40.3727 -142.8194 279° West 432 497 32,000  Level FlightAware Transoceanic
07:53PM 40.3912 -142.9747 279° West 432 497 32,000  Level FlightAware Transoceanic
07:54PM 40.4094 -143.1302 279° West 432 497 32,000  Level FlightAware Transoceanic
07:55PM 40.4274 -143.2857 279° West 432 497 32,000  Level FlightAware Transoceanic
07:56PM 40.4452 -143.4413 279° West 432 497 32,000  Level FlightAware Transoceanic
07:57PM 40.4628 -143.5970 278° West 432 497 32,000  Level FlightAware Transoceanic
07:58PM 40.4802 -143.7528 278° West 432 497 32,000  Level FlightAware Transoceanic
07:59PM 40.4974 -143.9086 278° West 432 497 32,000  Level FlightAware Transoceanic
08:00PM 40.5144 -144.0645 278° West 432 497 32,000  Level FlightAware Transoceanic
08:01PM 40.5311 -144.2206 278° West 432 497 32,000  Level FlightAware Transoceanic
08:02PM 40.5477 -144.3766 278° West 432 497 32,000  Level FlightAware Transoceanic
08:03PM 40.5640 -144.5328 278° West 432 497 32,000  Level FlightAware Transoceanic
08:04PM 40.5802 -144.6890 278° West 432 497 32,000  Level FlightAware Transoceanic
08:05PM 40.5961 -144.8454 278° West 432 497 32,000  Level FlightAware Transoceanic
08:06PM 40.6118 -145.0017 277° West 432 497 32,000  Level FlightAware Transoceanic
08:07PM 40.6273 -145.1582 277° West 432 497 32,000  Level FlightAware Transoceanic
08:08PM 40.6426 -145.3147 277° West 432 497 32,000  Level FlightAware Transoceanic
08:09PM 40.6577 -145.4713 277° West 432 497 32,000  Level FlightAware Transoceanic
08:10PM 40.6726 -145.6280 277° West 432 497 32,000  Level FlightAware Transoceanic
08:11PM 40.6872 -145.7847 277° West 432 497 32,000  Level FlightAware Transoceanic
08:12PM 40.7017 -145.9416 277° West 432 497 32,000  Level FlightAware Transoceanic
08:13PM 40.7159 -146.0984 277° West 432 497 32,000  Level FlightAware Transoceanic
08:14PM 40.7299 -146.2554 277° West 432 497 32,000  Level FlightAware Transoceanic
08:15PM 40.7437 -146.4124 277° West 432 497 32,000  Level FlightAware Transoceanic
08:16PM 40.7573 -146.5695 276° West 432 497 32,000  Level FlightAware Transoceanic
08:17PM 40.7707 -146.7266 276° West 432 497 32,000  Level FlightAware Transoceanic
08:18PM 40.7839 -146.8838 276° West 432 497 32,000  Level FlightAware Transoceanic
08:19PM 40.7968 -147.0411 276° West 432 497 32,000  Level FlightAware Transoceanic
08:20PM 40.8096 -147.1984 276° West 432 497 32,000  Level FlightAware Transoceanic
08:21PM 40.8221 -147.3558 276° West 432 497 32,000  Level FlightAware Transoceanic
08:22PM 40.8344 -147.5132 276° West 432 497 32,000  Level FlightAware Transoceanic
08:23PM 40.8465 -147.6707 276° West 432 497 32,000  Level FlightAware Transoceanic
08:24PM 40.8584 -147.8283 276° West 432 497 32,000  Level FlightAware Transoceanic
08:25PM 40.8701 -147.9859 276° West 432 497 32,000  Level FlightAware Transoceanic
08:26PM 40.8815 -148.1436 275° West 432 497 32,000  Level FlightAware Transoceanic
08:27PM 40.8928 -148.3013 275° West 432 497 32,000  Level FlightAware Transoceanic
08:28PM 40.9038 -148.4591 275° West 432 497 32,000  Level FlightAware Transoceanic
08:29PM 40.9146 -148.6169 275° West 432 497 32,000  Level FlightAware Transoceanic
08:30PM 40.9252 -148.7748 275° West 432 497 32,000  Level FlightAware Transoceanic
08:31PM 40.9356 -148.9327 275° West 432 497 32,000  Level FlightAware Transoceanic
08:32PM 40.9457 -149.0907 275° West 432 497 32,000  Level FlightAware Transoceanic
08:33PM 40.9557 -149.2487 275° West 432 497 32,000  Level FlightAware Transoceanic
08:34PM 40.9654 -149.4068 275° West 432 497 32,000  Level FlightAware Transoceanic
08:35PM 40.9749 -149.5649 275° West 432 497 32,000  Level FlightAware Transoceanic
08:36PM 40.9842 -149.7231 274° West 432 497 32,000  Level FlightAware Transoceanic
08:37PM 40.9933 -149.8813 274° West 432 497 32,000  Level FlightAware Transoceanic
08:38PM 41.0017 -150.0396 273° West 432 497 32,000  Level FlightAware Transoceanic
08:39PM 41.0084 -150.1980 273° West 432 497 32,000  Level FlightAware Transoceanic
08:40PM 41.0149 -150.3564 273° West 432 497 32,000  Level FlightAware Transoceanic
08:41PM 41.0211 -150.5149 93° East 432 497 32,000  Level FlightAware Transoceanic
08:41PM 41.0000 -150.0000 273° West 425 489 32,000  Level Oakland Oceanic (ODAPS)
08:42PM 41.0272 -150.6734 273° West 432 497 32,000  Level FlightAware Transoceanic
08:49PM 41.0627 -151.7558 272° West 425 489 32,000  Level FlightAware Transoceanic
08:50PM 41.0670 -151.9120 272° West 425 489 32,000  Level FlightAware Transoceanic
08:51PM 41.0710 -152.0682 272° West 425 489 32,000  Level FlightAware Transoceanic
08:52PM 41.0749 -152.2245 272° West 425 489 32,000  Level FlightAware Transoceanic
08:53PM 41.0785 -152.3807 272° West 425 489 32,000  Level FlightAware Transoceanic
08:54PM 41.0820 -152.5370 272° West 425 489 32,000  Level FlightAware Transoceanic
08:55PM 41.0852 -152.6933 272° West 425 489 32,000  Level FlightAware Transoceanic
08:56PM 41.0882 -152.8496 271° West 425 489 32,000  Level FlightAware Transoceanic
08:57PM 41.0910 -153.0060 271° West 425 489 32,000  Level FlightAware Transoceanic
08:58PM 41.0936 -153.1623 271° West 425 489 32,000  Level FlightAware Transoceanic
08:59PM 41.0960 -153.3187 271° West 425 489 32,000  Level FlightAware Transoceanic
09:00PM 41.0981 -153.4751 271° West 425 489 32,000  Level FlightAware Transoceanic
09:01PM 41.1001 -153.6314 271° West 425 489 32,000  Level FlightAware Transoceanic
09:02PM 41.1018 -153.7878 271° West 425 489 32,000  Level FlightAware Transoceanic
09:03PM 41.1034 -153.9442 271° West 425 489 32,000  Level FlightAware Transoceanic
09:04PM 41.1047 -154.1006 271° West 425 489 32,000  Level FlightAware Transoceanic
09:05PM 41.1058 -154.2570 270° West 425 489 32,000  Level FlightAware Transoceanic
09:06PM 41.1067 -154.4134 270° West 425 489 32,000  Level FlightAware Transoceanic
09:07PM 41.1074 -154.5698 270° West 425 489 32,000  Level FlightAware Transoceanic
09:08PM 41.1079 -154.7263 270° West 425 489 32,000  Level FlightAware Transoceanic
09:09PM 41.1081 -154.8827 270° West 425 489 32,000  Level FlightAware Transoceanic
09:10PM 41.1082 -155.0391 270° West 425 489 32,000  Level FlightAware Transoceanic
09:11PM 41.1080 -155.1955 270° West 425 489 32,000  Level FlightAware Transoceanic
09:12PM 41.1077 -155.3519 270° West 425 489 32,000  Level FlightAware Transoceanic
09:13PM 41.1071 -155.5084 270° West 425 489 32,000  Level FlightAware Transoceanic
09:14PM 41.1063 -155.6648 270° West 425 489 32,000  Level FlightAware Transoceanic
09:15PM 41.1053 -155.8212 269° West 425 489 32,000  Level FlightAware Transoceanic
09:16PM 41.1041 -155.9776 269° West 425 489 32,000  Level FlightAware Transoceanic
09:17PM 41.1026 -156.1340 269° West 425 489 32,000  Level FlightAware Transoceanic
09:18PM 41.1010 -156.2904 269° West 425 489 32,000  Level FlightAware Transoceanic
09:19PM 41.0991 -156.4468 269° West 425 489 32,000  Level FlightAware Transoceanic
09:20PM 41.0971 -156.6031 269° West 425 489 32,000  Level FlightAware Transoceanic
09:21PM 41.0948 -156.7595 269° West 425 489 32,000  Level FlightAware Transoceanic
09:22PM 41.0923 -156.9159 269° West 425 489 32,000  Level FlightAware Transoceanic
09:23PM 41.0896 -157.0722 269° West 425 489 32,000  Level FlightAware Transoceanic
09:24PM 41.0867 -157.2285 269° West 425 489 32,000  Level FlightAware Transoceanic
09:25PM 41.0836 -157.3848 268° West 425 489 32,000  Level FlightAware Transoceanic
09:26PM 41.0803 -157.5411 268° West 425 489 32,000  Level FlightAware Transoceanic
09:27PM 41.0767 -157.6974 268° West 425 489 32,000  Level FlightAware Transoceanic
09:28PM 41.0730 -157.8537 268° West 425 489 32,000  Level FlightAware Transoceanic
09:29PM 41.0690 -158.0099 268° West 425 489 32,000  Level FlightAware Transoceanic
09:30PM 41.0648 -158.1661 268° West 425 489 32,000  Level FlightAware Transoceanic
09:31PM 41.0605 -158.3224 268° West 425 489 32,000  Level FlightAware Transoceanic
09:32PM 41.0559 -158.4785 268° West 425 489 32,000  Level FlightAware Transoceanic
09:33PM 41.0510 -158.6347 268° West 425 489 32,000  Level FlightAware Transoceanic
09:34PM 41.0460 -158.7908 268° West 425 489 32,000  Level FlightAware Transoceanic
09:35PM 41.0408 -158.9469 267° West 425 489 32,000  Level FlightAware Transoceanic
09:36PM 41.0354 -159.1030 267° West 425 489 32,000  Level FlightAware Transoceanic
09:37PM 41.0297 -159.2591 267° West 425 489 32,000  Level FlightAware Transoceanic
09:38PM 41.0238 -159.4151 267° West 425 489 32,000  Level FlightAware Transoceanic
09:39PM 41.0178 -159.5711 267° West 425 489 32,000  Level FlightAware Transoceanic
09:40PM 41.0115 -159.7271 267° West 425 489 32,000  Level FlightAware Transoceanic
09:41PM 41.0050 -159.8831 268° West 425 489 32,000  Level FlightAware Transoceanic
09:42PM 41.0017 -160.0402 273° West 425 489 32,000  Level FlightAware Transoceanic
09:43PM 41.0085 -160.2012 273° West 425 489 32,000  Level FlightAware Transoceanic
09:44PM 41.0151 -160.3622 93° East 425 489 32,000 1,860 Level FlightAware Transoceanic
09:44PM 41.0000 -160.0000 273° West 425 489 34,000 240 Climbing Oakland Oceanic (ODAPS)
09:52PM 41.0535 -161.4434 272° West 425 489 34,000  Level FlightAware Transoceanic
09:53PM 41.0582 -161.5996 272° West 425 489 34,000  Level FlightAware Transoceanic
09:54PM 41.0627 -161.7558 272° West 425 489 34,000  Level FlightAware Transoceanic
09:55PM 41.0670 -161.9120 272° West 425 489 34,000  Level FlightAware Transoceanic
09:56PM 41.0710 -162.0682 272° West 425 489 34,000  Level FlightAware Transoceanic
09:57PM 41.0749 -162.2245 272° West 425 489 34,000  Level FlightAware Transoceanic
09:58PM 41.0785 -162.3807 272° West 425 489 34,000  Level FlightAware Transoceanic
09:59PM 41.0820 -162.5370 272° West 425 489 34,000  Level FlightAware Transoceanic
10:05PM 41.0987 -163.5193 271° West 425 489 34,000  Level FlightAware Transoceanic
10:06PM 41.1006 -163.6757 271° West 425 489 34,000  Level FlightAware Transoceanic
10:07PM 41.1023 -163.8321 271° West 425 489 34,000  Level FlightAware Transoceanic
10:08PM 41.1038 -163.9885 271° West 425 489 34,000  Level FlightAware Transoceanic
10:09PM 41.1050 -164.1449 271° West 425 489 34,000  Level FlightAware Transoceanic
10:10PM 41.1061 -164.3013 270° West 425 489 34,000  Level FlightAware Transoceanic
10:11PM 41.1069 -164.4577 270° West 425 489 34,000  Level FlightAware Transoceanic
10:12PM 41.1075 -164.6142 270° West 425 489 34,000  Level FlightAware Transoceanic
10:13PM 41.1080 -164.7706 270° West 425 489 34,000  Level FlightAware Transoceanic
10:14PM 41.1082 -164.9270 270° West 425 489 34,000  Level FlightAware Transoceanic
10:15PM 41.1082 -165.0834 270° West 425 489 34,000  Level FlightAware Transoceanic
10:16PM 41.1079 -165.2399 270° West 425 489 34,000  Level FlightAware Transoceanic
10:17PM 41.1075 -165.3963 270° West 425 489 34,000  Level FlightAware Transoceanic
10:18PM 41.1069 -165.5527 270° West 425 489 34,000  Level FlightAware Transoceanic
10:19PM 41.1060 -165.7091 270° West 425 489 34,000  Level FlightAware Transoceanic
10:20PM 41.1049 -165.8655 269° West 425 489 34,000  Level FlightAware Transoceanic
10:21PM 41.1037 -166.0219 269° West 425 489 34,000  Level FlightAware Transoceanic
10:22PM 41.1022 -166.1783 269° West 425 489 34,000  Level FlightAware Transoceanic
10:23PM 41.1005 -166.3347 269° West 425 489 34,000  Level FlightAware Transoceanic
10:24PM 41.0986 -166.4911 269° West 425 489 34,000  Level FlightAware Transoceanic
10:25PM 41.0965 -166.6474 269° West 425 489 34,000  Level FlightAware Transoceanic
10:26PM 41.0941 -166.8038 269° West 425 489 34,000  Level FlightAware Transoceanic
10:27PM 41.0916 -166.9601 269° West 425 489 34,000  Level FlightAware Transoceanic
10:28PM 41.0888 -167.1165 269° West 425 489 34,000  Level FlightAware Transoceanic
10:29PM 41.0858 -167.2728 269° West 425 489 34,000  Level FlightAware Transoceanic
10:30PM 41.0827 -167.4291 268° West 425 489 34,000  Level FlightAware Transoceanic
10:31PM 41.0793 -167.5854 268° West 425 489 34,000  Level FlightAware Transoceanic
10:32PM 41.0757 -167.7417 268° West 425 489 34,000  Level FlightAware Transoceanic
10:33PM 41.0719 -167.8979 268° West 425 489 34,000  Level FlightAware Transoceanic
10:34PM 41.0678 -168.0542 268° West 425 489 34,000  Level FlightAware Transoceanic
10:35PM 41.0636 -168.2104 268° West 425 489 34,000  Level FlightAware Transoceanic
10:36PM 41.0592 -168.3666 268° West 425 489 34,000  Level FlightAware Transoceanic
10:37PM 41.0545 -168.5228 268° West 425 489 34,000  Level FlightAware Transoceanic
10:38PM 41.0496 -168.6789 268° West 425 489 34,000  Level FlightAware Transoceanic
10:39PM 41.0446 -168.8351 267° West 425 489 34,000  Level FlightAware Transoceanic
10:40PM 41.0393 -168.9912 267° West 425 489 34,000  Level FlightAware Transoceanic
10:41PM 41.0338 -169.1472 267° West 425 489 34,000  Level FlightAware Transoceanic
10:42PM 41.0281 -169.3033 267° West 425 489 34,000  Level FlightAware Transoceanic
10:43PM 41.0221 -169.4593 267° West 425 489 34,000  Level FlightAware Transoceanic
10:44PM 41.0160 -169.6153 267° West 425 489 34,000  Level FlightAware Transoceanic
10:45PM 41.0097 -169.7713 267° West 425 489 34,000  Level FlightAware Transoceanic
10:46PM 41.0031 -169.9272 266° West 425 489 34,000  Level FlightAware Transoceanic
10:47PM 40.9949 -170.0916 266° West 425 489 34,000  Level FlightAware Transoceanic
10:48PM 40.9850 -170.2632 266° West 425 489 34,000  Level FlightAware Transoceanic
10:49PM 40.9750 -170.4348 85° East 425 489 34,000 780 Level FlightAware Transoceanic
10:49PM 41.0000 -170.0000 266° West 446 513 35,000  Climbing Oakland Oceanic (ODAPS)
10:50PM 40.9646 -170.6063 265° West 425 489 34,000 -600 Descending FlightAware Transoceanic
10:51PM 40.9540 -170.7777 265° West 425 489 34,000  Level FlightAware Transoceanic
10:52PM 40.9432 -170.9491 265° West 425 489 34,000  Level FlightAware Transoceanic
10:53PM 40.9321 -171.1205 265° West 425 489 34,000 180 Level FlightAware Transoceanic
10:57PM 40.9028 -171.5553 265° West 446 513 35,000 180 Climbing FlightAware Transoceanic
10:58PM 40.8914 -171.7181 265° West 446 513 35,000  Level FlightAware Transoceanic
10:59PM 40.8797 -171.8809 265° West 446 513 35,000  Level FlightAware Transoceanic
11:00PM 40.8679 -172.0437 264° West 446 513 35,000  Level FlightAware Transoceanic
11:01PM 40.8558 -172.2063 264° West 446 513 35,000  Level FlightAware Transoceanic
11:02PM 40.8435 -172.3690 264° West 446 513 35,000  Level FlightAware Transoceanic
11:03PM 40.8309 -172.5315 264° West 446 513 35,000  Level FlightAware Transoceanic
11:04PM 40.8181 -172.6940 264° West 446 513 35,000  Level FlightAware Transoceanic
11:05PM 40.8051 -172.8565 264° West 446 513 35,000  Level FlightAware Transoceanic
11:06PM 40.7919 -173.0189 264° West 446 513 35,000  Level FlightAware Transoceanic
11:07PM 40.7785 -173.1812 264° West 446 513 35,000  Level FlightAware Transoceanic
11:08PM 40.7648 -173.3434 264° West 446 513 35,000  Level FlightAware Transoceanic
11:09PM 40.7508 -173.5056 263° West 446 513 35,000  Level FlightAware Transoceanic
11:10PM 40.7367 -173.6677 263° West 446 513 35,000  Level FlightAware Transoceanic
11:11PM 40.7223 -173.8298 263° West 446 513 35,000  Level FlightAware Transoceanic
11:12PM 40.7077 -173.9917 263° West 446 513 35,000  Level FlightAware Transoceanic
11:13PM 40.6929 -174.1536 263° West 446 513 35,000  Level FlightAware Transoceanic
11:14PM 40.6779 -174.3154 263° West 446 513 35,000  Level FlightAware Transoceanic
11:15PM 40.6626 -174.4772 263° West 446 513 35,000  Level FlightAware Transoceanic
11:16PM 40.6471 -174.6389 263° West 446 513 35,000  Level FlightAware Transoceanic
11:17PM 40.6314 -174.8005 263° West 446 513 35,000  Level FlightAware Transoceanic
11:18PM 40.6154 -174.9620 263° West 446 513 35,000  Level FlightAware Transoceanic
11:19PM 40.5993 -175.1235 262° West 446 513 35,000  Level FlightAware Transoceanic
11:20PM 40.5829 -175.2848 262° West 446 513 35,000  Level FlightAware Transoceanic
11:21PM 40.5662 -175.4461 262° West 446 513 35,000  Level FlightAware Transoceanic
11:22PM 40.5494 -175.6073 262° West 446 513 35,000  Level FlightAware Transoceanic
11:23PM 40.5323 -175.7684 262° West 446 513 35,000  Level FlightAware Transoceanic
11:24PM 40.5150 -175.9295 262° West 446 513 35,000  Level FlightAware Transoceanic
11:25PM 40.4975 -176.0905 262° West 446 513 35,000  Level FlightAware Transoceanic
11:26PM 40.4798 -176.2513 262° West 446 513 35,000  Level FlightAware Transoceanic
11:27PM 40.4618 -176.4121 262° West 446 513 35,000  Level FlightAware Transoceanic
11:28PM 40.4436 -176.5728 261° West 446 513 35,000  Level FlightAware Transoceanic
11:29PM 40.4252 -176.7334 261° West 446 513 35,000  Level FlightAware Transoceanic
11:30PM 40.4066 -176.8940 261° West 446 513 35,000  Level FlightAware Transoceanic
11:31PM 40.3877 -177.0544 261° West 446 513 35,000  Level FlightAware Transoceanic
11:32PM 40.3686 -177.2148 261° West 446 513 35,000  Level FlightAware Transoceanic
11:33PM 40.3493 -177.3750 261° West 446 513 35,000  Level FlightAware Transoceanic
11:34PM 40.3298 -177.5352 261° West 446 513 35,000  Level FlightAware Transoceanic
11:35PM 40.3101 -177.6953 261° West 446 513 35,000  Level FlightAware Transoceanic
11:36PM 40.2901 -177.8552 261° West 446 513 35,000  Level FlightAware Transoceanic
11:37PM 40.2699 -178.0151 261° West 446 513 35,000  Level FlightAware Transoceanic
11:38PM 40.2495 -178.1749 260° West 446 513 35,000  Level FlightAware Transoceanic
11:39PM 40.2289 -178.3346 260° West 446 513 35,000  Level FlightAware Transoceanic
11:40PM 40.2081 -178.4942 260° West 446 513 35,000  Level FlightAware Transoceanic
11:41PM 40.1870 -178.6537 260° West 446 513 35,000  Level FlightAware Transoceanic
11:42PM 40.1657 -178.8131 260° West 446 513 35,000  Level FlightAware Transoceanic
11:43PM 40.1442 -178.9724 260° West 446 513 35,000  Level FlightAware Transoceanic
11:44PM 40.1225 -179.1316 260° West 446 513 35,000  Level FlightAware Transoceanic
11:45PM 40.1006 -179.2907 260° West 446 513 35,000  Level FlightAware Transoceanic
11:46PM 40.0785 -179.4496 260° West 446 513 35,000  Level FlightAware Transoceanic
11:47PM 40.0561 -179.6085 260° West 446 513 35,000  Level FlightAware Transoceanic
11:48PM 40.0335 -179.7673 259° West 446 513 35,000  Level FlightAware Transoceanic
11:49PM 40.0107 -179.9260 263° West 446 513 35,000  Level FlightAware Transoceanic
11:50PM 39.9947 179.9053 266° West 446 513 35,000  Level FlightAware Transoceanic
11:51PM 39.9844 179.7277 86° East 446 513 35,000 480 Level FlightAware Transoceanic
11:52PM 40.0000 -180.0000 266° West 484 557 36,000  Climbing Oakland Oceanic (ODAPS)
12:50AM 39.0000 170.0000 266° West 459 528 36,000  Level Oakland Oceanic (ODAPS)
12:50AM 38.9752 169.5728 266° West 484 557 36,000  Level FlightAware Transoceanic
12:51AM 38.9649 169.4043 265° West 484 557 36,000  Level FlightAware Transoceanic
12:52AM 38.9544 169.2358 265° West 484 557 36,000  Level FlightAware Transoceanic
12:53AM 38.9437 169.0674 265° West 484 557 36,000  Level FlightAware Transoceanic
12:54AM 38.9328 168.8990 265° West 484 557 36,000  Level FlightAware Transoceanic
12:57AM 38.9020 168.4459 265° West 459 528 36,000  Level FlightAware Transoceanic
12:58AM 38.8906 168.2832 265° West 459 528 36,000  Level FlightAware Transoceanic
12:59AM 38.8789 168.1205 265° West 459 528 36,000  Level FlightAware Transoceanic
01:00AM 38.8669 167.9578 265° West 459 528 36,000  Level FlightAware Transoceanic
01:01AM 38.8548 167.7953 264° West 459 528 36,000  Level FlightAware Transoceanic
01:02AM 38.8424 167.6327 264° West 459 528 36,000  Level FlightAware Transoceanic
01:03AM 38.8298 167.4702 264° West 459 528 36,000  Level FlightAware Transoceanic
01:04AM 38.8170 167.3078 264° West 459 528 36,000  Level FlightAware Transoceanic
01:05AM 38.8040 167.1454 264° West 459 528 36,000  Level FlightAware Transoceanic
01:06AM 38.7907 166.9832 264° West 459 528 36,000  Level FlightAware Transoceanic
01:07AM 38.7772 166.8209 264° West 459 528 36,000  Level FlightAware Transoceanic
01:08AM 38.7635 166.6587 264° West 459 528 36,000  Level FlightAware Transoceanic
01:09AM 38.7495 166.4966 264° West 459 528 36,000  Level FlightAware Transoceanic
01:10AM 38.7354 166.3346 264° West 459 528 36,000  Level FlightAware Transoceanic
01:11AM 38.7210 166.1726 263° West 459 528 36,000  Level FlightAware Transoceanic
01:12AM 38.7063 166.0107 263° West 459 528 36,000  Level FlightAware Transoceanic
01:13AM 38.6915 165.8488 263° West 459 528 36,000  Level FlightAware Transoceanic
01:14AM 38.6764 165.6870 263° West 459 528 36,000  Level FlightAware Transoceanic
01:15AM 38.6612 165.5253 263° West 459 528 36,000  Level FlightAware Transoceanic
01:16AM 38.6457 165.3636 263° West 459 528 36,000  Level FlightAware Transoceanic
01:17AM 38.6299 165.2021 263° West 459 528 36,000  Level FlightAware Transoceanic
01:18AM 38.6140 165.0405 263° West 459 528 36,000  Level FlightAware Transoceanic
01:19AM 38.5978 164.8791 263° West 459 528 36,000  Level FlightAware Transoceanic
01:20AM 38.5814 164.7177 263° West 459 528 36,000  Level FlightAware Transoceanic
01:21AM 38.5648 164.5565 262° West 459 528 36,000  Level FlightAware Transoceanic
01:22AM 38.5480 164.3952 262° West 459 528 36,000  Level FlightAware Transoceanic
01:23AM 38.5309 164.2341 262° West 459 528 36,000  Level FlightAware Transoceanic
01:24AM 38.5136 164.0730 262° West 459 528 36,000  Level FlightAware Transoceanic
01:25AM 38.4961 163.9121 262° West 459 528 36,000  Level FlightAware Transoceanic
01:26AM 38.4784 163.7512 262° West 459 528 36,000  Level FlightAware Transoceanic
01:27AM 38.4605 163.5903 262° West 459 528 36,000  Level FlightAware Transoceanic
01:28AM 38.4423 163.4296 262° West 459 528 36,000  Level FlightAware Transoceanic
01:29AM 38.4239 163.2689 262° West 459 528 36,000  Level FlightAware Transoceanic
01:30AM 38.4053 163.1084 262° West 459 528 36,000  Level FlightAware Transoceanic
01:31AM 38.3865 162.9479 261° West 459 528 36,000  Level FlightAware Transoceanic
01:32AM 38.3675 162.7874 261° West 459 528 36,000  Level FlightAware Transoceanic
01:33AM 38.3482 162.6271 261° West 459 528 36,000  Level FlightAware Transoceanic
01:34AM 38.3288 162.4669 261° West 459 528 36,000  Level FlightAware Transoceanic
01:35AM 38.3091 162.3067 261° West 459 528 36,000  Level FlightAware Transoceanic
01:36AM 38.2892 162.1467 261° West 459 528 36,000  Level FlightAware Transoceanic
01:37AM 38.2690 161.9867 261° West 459 528 36,000  Level FlightAware Transoceanic
01:38AM 38.2487 161.8268 261° West 459 528 36,000  Level FlightAware Transoceanic
01:39AM 38.2281 161.6670 261° West 459 528 36,000  Level FlightAware Transoceanic
01:40AM 38.2074 161.5073 261° West 459 528 36,000  Level FlightAware Transoceanic
01:41AM 38.1864 161.3477 260° West 459 528 36,000  Level FlightAware Transoceanic
01:42AM 38.1651 161.1881 260° West 459 528 36,000  Level FlightAware Transoceanic
01:43AM 38.1437 161.0287 260° West 459 528 36,000  Level FlightAware Transoceanic
01:44AM 38.1221 160.8694 260° West 459 528 36,000  Level FlightAware Transoceanic
01:45AM 38.1002 160.7101 260° West 459 528 36,000  Level FlightAware Transoceanic
01:46AM 38.0782 160.5510 260° West 459 528 36,000  Level FlightAware Transoceanic
01:47AM 38.0559 160.3919 260° West 459 528 36,000  Level FlightAware Transoceanic
01:48AM 38.0334 160.2330 260° West 459 528 36,000  Level FlightAware Transoceanic
01:49AM 38.0107 160.0741 263° West 459 528 36,000  Level FlightAware Transoceanic
01:50AM 37.9952 159.9157 266° West 459 528 36,000  Level FlightAware Transoceanic
01:51AM 37.9860 159.7577 266° West 459 528 36,000  Level FlightAware Transoceanic
01:52AM 37.9766 159.5997 266° West 459 528 36,000  Level FlightAware Transoceanic
01:53AM 37.9670 159.4418 266° West 459 528 36,000  Level FlightAware Transoceanic
01:54AM 37.9572 159.2838 265° West 459 528 36,000  Level FlightAware Transoceanic
01:55AM 37.9472 159.1260 265° West 459 528 36,000  Level FlightAware Transoceanic
01:56AM 37.9369 158.9682 265° West 459 528 36,000  Level FlightAware Transoceanic
01:57AM 37.9265 158.8104 265° West 459 528 36,000  Level FlightAware Transoceanic
01:58AM 37.9158 158.6527 265° West 459 528 36,000  Level FlightAware Transoceanic
01:59AM 37.9049 158.4950 265° West 459 528 36,000  Level FlightAware Transoceanic
02:00AM 37.8938 158.3374 265° West 459 528 36,000  Level FlightAware Transoceanic
02:01AM 37.8826 158.1798 265° West 459 528 36,000  Level FlightAware Transoceanic
02:02AM 37.8711 158.0222 265° West 459 528 36,000  Level FlightAware Transoceanic
02:03AM 37.8593 157.8647 265° West 459 528 36,000  Level FlightAware Transoceanic
02:04AM 37.8474 157.7073 264° West 459 528 36,000  Level FlightAware Transoceanic
02:05AM 37.8353 157.5499 264° West 459 528 36,000  Level FlightAware Transoceanic
02:06AM 37.8229 157.3926 264° West 459 528 36,000  Level FlightAware Transoceanic
02:07AM 37.8104 157.2353 264° West 459 528 36,000  Level FlightAware Transoceanic
02:08AM 37.7976 157.0781 264° West 459 528 36,000  Level FlightAware Transoceanic
02:09AM 37.7847 156.9209 264° West 459 528 36,000  Level FlightAware Transoceanic
02:10AM 37.7715 156.7638 264° West 459 528 36,000  Level FlightAware Transoceanic
02:11AM 37.7581 156.6067 264° West 459 528 36,000  Level FlightAware Transoceanic
02:12AM 37.7445 156.4497 264° West 459 528 36,000  Level FlightAware Transoceanic
02:13AM 37.7307 156.2928 264° West 459 528 36,000  Level FlightAware Transoceanic
02:14AM 37.7167 156.1359 264° West 459 528 36,000  Level FlightAware Transoceanic
02:15AM 37.7025 155.9791 263° West 459 528 36,000  Level FlightAware Transoceanic
02:16AM 37.6881 155.8223 263° West 459 528 36,000  Level FlightAware Transoceanic
02:17AM 37.6734 155.6656 263° West 459 528 36,000  Level FlightAware Transoceanic
02:18AM 37.6586 155.5090 263° West 459 528 36,000  Level FlightAware Transoceanic
02:19AM 37.6436 155.3524 263° West 459 528 36,000  Level FlightAware Transoceanic
02:20AM 37.6283 155.1959 263° West 459 528 36,000  Level FlightAware Transoceanic
02:21AM 37.6128 155.0394 263° West 459 528 36,000  Level FlightAware Transoceanic
02:22AM 37.5972 154.8830 263° West 459 528 36,000  Level FlightAware Transoceanic
02:23AM 37.5813 154.7267 263° West 459 528 36,000  Level FlightAware Transoceanic
02:24AM 37.5652 154.5705 263° West 459 528 36,000  Level FlightAware Transoceanic
02:25AM 37.5489 154.4143 262° West 459 528 36,000  Level FlightAware Transoceanic
02:26AM 37.5324 154.2582 262° West 459 528 36,000  Level FlightAware Transoceanic
02:27AM 37.5157 154.1021 262° West 459 528 36,000  Level FlightAware Transoceanic
02:28AM 37.4988 153.9462 262° West 459 528 36,000  Level FlightAware Transoceanic
02:29AM 37.4817 153.7902 262° West 459 528 36,000  Level FlightAware Transoceanic
02:30AM 37.4644 153.6344 262° West 459 528 36,000  Level FlightAware Transoceanic
02:31AM 37.4469 153.4787 262° West 459 528 36,000  Level FlightAware Transoceanic
02:32AM 37.4292 153.3230 262° West 459 528 36,000  Level FlightAware Transoceanic
02:33AM 37.4113 153.1674 262° West 459 528 36,000  Level FlightAware Transoceanic
02:34AM 37.3931 153.0118 262° West 459 528 36,000  Level FlightAware Transoceanic
02:35AM 37.3748 152.8564 262° West 459 528 36,000  Level FlightAware Transoceanic
02:36AM 37.3563 152.7010 261° West 459 528 36,000  Level FlightAware Transoceanic
02:37AM 37.3375 152.5457 261° West 459 528 36,000  Level FlightAware Transoceanic
02:38AM 37.3186 152.3904 261° West 459 528 36,000  Level FlightAware Transoceanic
02:39AM 37.2995 152.2353 261° West 459 528 36,000  Level FlightAware Transoceanic
02:40AM 37.2801 152.0802 261° West 459 528 36,000  Level FlightAware Transoceanic
02:41AM 37.2606 151.9252 261° West 459 528 36,000  Level FlightAware Transoceanic
02:42AM 37.2408 151.7703 261° West 459 528 36,000  Level FlightAware Transoceanic
02:43AM 37.2209 151.6155 261° West 459 528 36,000  Level FlightAware Transoceanic
02:44AM 37.2007 151.4607 261° West 459 528 36,000  Level FlightAware Transoceanic
02:45AM 37.1804 151.3061 261° West 459 528 36,000  Level FlightAware Transoceanic
02:46AM 37.1598 151.1515 260° West 459 528 36,000  Level FlightAware Transoceanic
02:47AM 37.1390 150.9970 260° West 459 528 36,000  Level FlightAware Transoceanic
02:48AM 37.1181 150.8426 260° West 459 528 36,000  Level FlightAware Transoceanic
02:49AM 37.0969 150.6882 260° West 459 528 36,000  Level FlightAware Transoceanic
02:50AM 37.0756 150.5340 260° West 459 528 36,000  Level FlightAware Transoceanic
02:51AM 37.0540 150.3799 260° West 459 528 36,000  Level FlightAware Transoceanic
02:52AM 37.0323 150.2258 260° West 459 528 36,000  Level FlightAware Transoceanic
02:53AM 37.0103 150.0718 259° West 459 528 36,000  Level FlightAware Transoceanic
02:54AM 36.9892 149.9346 259° West  Level FlightAware Approximate
02:55AM 36.9679 149.7974 259° West  Level FlightAware Approximate
02:56AM 36.9465 149.6603 259° West  Level FlightAware Approximate
02:57AM 36.9249 149.5233 259° West  Level FlightAware Approximate
02:58AM 36.9031 149.3864 259° West  Level FlightAware Approximate
02:59AM 36.8812 149.2495 259° West  Level FlightAware Approximate
03:00AM 36.8591 149.1127 259° West  Level FlightAware Approximate
03:01AM 36.8369 148.9760 258° West  Level FlightAware Approximate
03:02AM 36.8145 148.8394 258° West  Level FlightAware Approximate
03:03AM 36.7920 148.7029 258° West  Level FlightAware Approximate
03:04AM 36.7693 148.5664 258° West  Level FlightAware Approximate
03:05AM 36.7465 148.4300 258° West  Level FlightAware Approximate
03:06AM 36.7235 148.2937 258° West  Level FlightAware Approximate
03:07AM 36.7003 148.1575 258° West  Level FlightAware Approximate
03:08AM 36.6770 148.0214 243° Southwest  Level FlightAware Approximate
03:09AM 36.6275 147.8985 263° West  Level FlightAware Approximate
03:10AM 36.6143 147.7604 263° West  Level FlightAware Approximate
03:11AM 36.6009 147.6223 263° West  Level FlightAware Approximate
03:12AM 36.5873 147.4843 263° West  Level FlightAware Approximate
03:13AM 36.5736 147.3464 263° West  Level FlightAware Approximate
03:14AM 36.5597 147.2085 263° West  Level FlightAware Approximate
03:15AM 36.5457 147.0706 263° West  Level FlightAware Approximate
03:16AM 36.5315 146.9328 263° West  Level FlightAware Approximate
03:17AM 36.5172 146.7950 263° West  Level FlightAware Approximate
03:18AM 36.5026 146.6573 262° West  Level FlightAware Approximate
03:19AM 36.4880 146.5197 262° West  Level FlightAware Approximate
03:20AM 36.4731 146.3821 262° West  Level FlightAware Approximate
03:21AM 36.4581 146.2446 262° West  Level FlightAware Approximate
03:22AM 36.4430 146.1071 262° West  Level FlightAware Approximate
03:23AM 36.4277 145.9696 262° West  Level FlightAware Approximate
03:24AM 36.4123 145.8322 262° West  Level FlightAware Approximate
03:25AM 36.3966 145.6949 263° West  Level FlightAware Approximate
03:26AM 36.3831 145.5573 263° West  Level FlightAware Approximate
03:27AM 36.3695 145.4197 263° West  Level FlightAware Approximate
03:28AM 36.3557 145.2821 263° West  Level FlightAware Approximate
03:29AM 36.3417 145.1446 263° West  Level FlightAware Approximate
03:30AM 36.3276 145.0072 263° West  Level FlightAware Approximate
03:31AM 36.3133 144.8698 263° West  Level FlightAware Approximate
03:32AM 36.2989 144.7324 263° West  Level FlightAware Approximate
03:33AM 36.2843 144.5951 262° West  Level FlightAware Approximate
03:34AM 36.2695 144.4579 262° West  Level FlightAware Approximate
03:35AM 36.2546 144.3207 262° West  Level FlightAware Approximate
03:36AM 36.2395 144.1835 262° West  Level FlightAware Approximate
03:37AM 36.2243 144.0464 262° West  Level FlightAware Approximate
03:38AM 36.2089 143.9094 262° West  Level FlightAware Approximate
03:39AM 36.1934 143.7724 262° West  Level FlightAware Approximate
03:40AM 36.1777 143.6355 262° West  Level FlightAware Approximate
03:41AM 36.1619 143.4986 262° West  Level FlightAware Approximate
03:42AM 36.1459 143.3618 262° West  Level FlightAware Approximate
03:43AM 36.1297 143.2250 262° West  Level FlightAware Approximate
03:44AM 36.1134 143.0883 262° West  Level FlightAware Approximate
03:45AM 36.0969 142.9517 261° West  Level FlightAware Approximate
03:46AM 36.0803 142.8151 261° West  Level FlightAware Approximate
03:47AM 36.0635 142.6785 261° West  Level FlightAware Approximate
03:48AM 36.0466 142.5421 261° West  Level FlightAware Approximate
03:49AM 36.0295 142.4057 261° West  Level FlightAware Approximate
03:50AM 36.0123 142.2693 261° West  Level FlightAware Approximate
03:51AM 35.9949 142.1330 261° West  Level FlightAware Approximate
03:52AM 35.9773 141.9968 226° Southwest  Level FlightAware Approximate
03:53AM 35.9000 141.8981 264° West  Level FlightAware Approximate
03:54AM 35.8881 141.7611 264° West  Level FlightAware Approximate
03:55AM 35.8761 141.6241 280° West  Level FlightAware Approximate
03:56AM 35.8934 141.5006 262° West  Level FlightAware Approximate
03:57AM 35.8775 141.3642 263° West  Level FlightAware Approximate
03:58AM 35.8635 141.2307 260° West  Level FlightAware Approximate
03:59AM 35.8432 141.0953 262° West  Level FlightAware Approximate
04:00AM 35.8273 140.9590 262° West  Level FlightAware Approximate
04:01AM 35.8117 140.8228 262° West  Level FlightAware Approximate
04:02AM 35.7954 140.6866 261° West  Level FlightAware Approximate
04:03AM 35.7779 140.5508 260° West  Level FlightAware Approximate
04:04AM 35.7582 140.4162 285° West  Level FlightAware Approximate
04:05AM 35.7872 140.2833 105° East  Level Estimated
04:06AM 35.7582 140.4162 285° West  Level Estimated
04:07AM 35.7872 140.2833 105° East  Level Estimated
04:08AM 35.7582 140.4162 253° West  Level Estimated
04:09AM 35.7500 140.3833 10° North  Level FlightAware Approximate
04:10AM 35.8601 140.4062 190° South  Level Estimated
04:11AM 35.7500 140.3833 10° North  Level FlightAware Approximate
04:12AM 35.8601 140.4062 190° South  Level Estimated
04:13AM 35.7500 140.3833 10° North  Level FlightAware Approximate
04:14AM 35.8601 140.4062 190° South  Level Estimated
04:15AM 35.7500 140.3833 10° North  Level FlightAware Approximate
04:16AM 35.8601 140.4062 190° South  Level Estimated
04:17AM 35.7500 140.3833 10° North  Level FlightAware Approximate
04:18AM 35.8601 140.4062 190° South  Level Estimated
04:19AM 35.7500 140.3833 10° North  Level FlightAware Approximate
04:20AM 35.8601 140.4062 10° North  Level Estimated